FW0201 Weather Reports


Display with metric or nautical units.
time (UTC)temp
F
wind
direction
speed
MPH
gust
MPH
rain 1hr
in
rain 24hr
in
rain mn
in
humidity
%
barometer
mb
20181021085504 42 169 4.0 6.0 0.00 0.00 0.00 72 1028.8
20181021085006 41 175 4.0 7.0 0.00 0.00 0.00 73 1028.9
20181021084504 41 169 4.0 7.0 0.00 0.00 0.00 73 1029.0
20181021084006 40 157 4.0 6.0 0.00 0.00 0.00 73 1029.0
20181021083504 40 157 4.0 6.0 0.00 0.00 0.00 73 1029.2
20181021083006 40 157 4.0 5.0 0.00 0.00 0.00 72 1029.2
20181021082504 41 157 4.0 5.0 0.00 0.00 0.00 71 1029.1
20181021082007 41 157 3.0 4.0 0.00 0.00 0.00 71 1029.2
20181021081505 42 157 5.0 7.0 0.00 0.00 0.00 70 1029.1
20181021081005 42 157 5.0 7.0 0.00 0.00 0.00 70 1029.2
20181021080504 42 157 4.0 5.0 0.00 0.00 0.00 69 1029.2
20181021080008 43 157 4.0 6.0 0.00 0.00 0.00 68 1029.2
20181021075507 43 157 4.0 6.0 0.00 0.00 0.00 69 1029.3
20181021075006 43 158 5.0 7.0 0.00 0.00 0.00 68 1029.3
20181021074504 43 157 4.0 6.0 0.00 0.00 0.00 67 1029.4
20181021074006 44 157 4.0 6.0 0.00 0.00 0.00 67 1029.4
20181021073504 44 157 5.0 7.0 0.00 0.00 0.00 66 1029.5
20181021073007 44 157 5.0 7.0 0.00 0.00 0.00 66 1029.6
20181021072505 44 157 5.0 7.0 0.00 0.00 0.00 65 1029.6
20181021072006 44 157 5.0 8.0 0.00 0.00 0.00 65 1029.6
20181021071506 44 157 6.0 8.0 0.00 0.00 0.00 64 1029.7
20181021071006 45 160 5.0 7.0 0.00 0.00 0.00 63 1029.7
20181021070504 45 157 3.0 5.0 0.00 0.00 0.00 63 1029.8
20181021070006 45 157 4.0 6.0 0.00 0.00 0.00 62 1029.9
20181021065504 46 175 5.0 7.0 0.00 0.00 0.00 61 1029.9
20181021065005 47 157 5.0 7.0 0.00 0.00 0.00 60 1030.0
20181021064504 48 158 7.0 10.0 0.00 0.00 0.00 59 1030.0
20181021064006 48 164 6.0 9.0 0.00 0.00 0.00 58 1030.1
20181021063505 48 155 7.0 11.0 0.00 0.00 0.00 58 1030.1
20181021063007 48 159 7.0 11.0 0.00 0.00 0.00 59 1030.1
20181021062504 48 155 8.0 10.0 0.00 0.00 0.00 58 1030.2
20181021062004 48 158 5.0 7.0 0.00 0.00 0.00 57 1030.2
20181021061505 48 159 5.0 8.0 0.00 0.00 0.00 57 1030.3
20181021061006 48 156 6.0 8.0 0.00 0.00 0.00 57 1030.3
20181021060505 49 154 7.0 10.0 0.00 0.00 0.00 56 1030.4
20181021055505 49 155 6.0 9.0 0.00 0.00 0.00 55 1030.6
20181021055005 49 152 6.0 9.0 0.00 0.00 0.00 56 1030.6
20181021054504 49 157 6.0 9.0 0.00 0.00 0.00 56 1030.8
20181021054005 49 156 7.0 10.0 0.00 0.00 0.00 55 1030.8
20181021053505 49 156 7.0 9.0 0.00 0.00 0.00 55 1030.9
20181021053005 50 151 7.0 10.0 0.00 0.00 0.00 55 1031.0
20181021052505 50 156 8.0 11.0 0.00 0.00 0.00 55 1031.0
20181021052005 50 153 7.0 10.0 0.00 0.00 0.00 53 1031.0
20181021051504 50 155 7.0 10.0 0.00 0.00 0.00 54 1031.1
20181021051006 50 156 8.0 12.0 0.00 0.00 0.00 54 1031.1
20181021050504 50 154 7.0 9.0 0.00 0.00 0.00 54 1031.1
20181021050007 50 154 7.0 10.0 0.00 0.00 0.00 54 1031.2
20181021045504 50 161 7.0 10.0 0.00 0.00 0.00 54 1031.3
20181021045005 50 153 7.0 10.0 0.00 0.00 0.00 53 1031.2
20181021044504 50 155 7.0 10.0 0.00 0.00 0.00 54 1031.3
20181021044005 50 159 8.0 11.0 0.00 0.00 0.00 56 1031.3
20181021043504 49 156 8.0 11.0 0.00 0.00 0.00 57 1031.4
20181021043006 49 155 7.0 11.0 0.00 0.00 0.00 60 1031.4
20181021042505 47 156 6.0 8.0 0.00 0.00 0.00 63 1031.4
20181021042007 45 157 5.0 6.0 0.00 0.00 0.00 64 1031.4
20181021041505 44 157 4.0 6.0 0.00 0.00 0.00 64 1031.4
20181021041007 44 157 3.0 4.0 0.00 0.00 0.00 63 1031.5
20181021040505 44 157 3.0 3.0 0.00 0.00 0.00 63 1031.5
20181021040006 44 157 2.0 3.0 0.00 0.00 0.00 63 1031.5
20181021035505 44 135 2.0 3.0 0.00 0.00 0.00 63 1031.5
20181021035006 44 135 2.0 2.0 0.00 0.00 0.00 64 1031.5
20181021034505 43 135 0.0 1.0 0.00 0.00 0.00 65 1031.5
20181021034005 43 135 0.0 0.0 0.00 0.00 0.00 64 1031.5
20181021033504 43 135 1.0 1.0 0.00 0.00 0.00 64 1031.5
20181021033007 44 135 2.0 2.0 0.00 0.00 0.00 64 1031.6
20181021032505 44 135 3.0 3.0 0.00 0.00 0.00 63 1031.5
20181021032006 44 112 2.0 3.0 0.00 0.00 0.00 64 1031.6
20181021031505 44 112 3.0 3.0 0.00 0.00 0.00 65 1031.6
20181021031006 43 112 3.0 3.0 0.00 0.00 0.00 66 1031.6
20181021030505 42 112 2.0 3.0 0.00 0.00 0.00 67 1031.7
20181021030007 42 112 2.0 3.0 0.00 0.00 0.00 68 1031.7
20181021025505 42 112 3.0 4.0 0.00 0.00 0.00 67 1031.7
20181021025006 43 112 3.0 3.0 0.00 0.00 0.00 67 1031.7
20181021024505 43 112 2.0 2.0 0.00 0.00 0.00 66 1031.7
20181021024006 43 112 2.0 3.0 0.00 0.00 0.00 65 1031.8
20181021023505 43 112 3.0 3.0 0.00 0.00 0.00 66 1031.8
20181021023006 43 112 3.0 4.0 0.00 0.00 0.00 66 1031.9
20181021022505 43 112 2.0 3.0 0.00 0.00 0.00 65 1031.9
20181021022006 43 112 2.0 3.0 0.00 0.00 0.00 65 1031.9
20181021021505 44 112 2.0 2.0 0.00 0.00 0.00 63 1031.8
20181021021006 44 112 3.0 3.0 0.00 0.00 0.00 63 1032.0
20181021020505 44 112 2.0 3.0 0.00 0.00 0.00 62 1032.0
20181021020007 45 112 2.0 2.0 0.00 0.00 0.00 62 1031.9
20181021015505 45 112 1.0 2.0 0.00 0.00 0.00 61 1032.0
20181021015007 46 112 3.0 3.0 0.00 0.00 0.00 60 1032.1
20181021014506 46 112 3.0 3.0 0.00 0.00 0.00 58 1032.1
20181021014007 47 90 3.0 3.0 0.00 0.00 0.00 57 1032.1
20181021013506 48 112 3.0 4.0 0.00 0.00 0.00 57 1032.2
20181021013007 48 112 3.0 4.0 0.00 0.00 0.00 57 1032.2
20181021012505 48 107 4.0 4.0 0.00 0.00 0.00 56 1032.2
20181021012005 48 106 3.0 4.0 0.00 0.00 0.00 55 1032.2
20181021011505 48 112 2.0 3.0 0.00 0.00 0.00 54 1032.1
20181021011006 48 112 3.0 3.0 0.00 0.00 0.00 54 1032.1
20181021010505 49 112 2.0 3.0 0.00 0.00 0.00 52 1032.2
20181021010006 50 112 3.0 4.0 0.00 0.00 0.00 51 1032.1
20181021005504 51 112 3.0 4.0 0.00 0.00 0.00 50 1032.2
20181021005006 52 90 4.0 6.0 0.00 0.00 0.00 50 1032.2
20181021004505 52 90 4.0 5.0 0.00 0.00 0.00 49 1032.2
20181021004006 52 90 2.0 3.0 0.00 0.00 0.00 49 1032.2
20181021003505 53 67 2.0 3.0 0.00 0.00 0.00 47 1032.2
20181021003006 54 67 3.0 4.0 0.00 0.00 0.00 46 1032.1
20181021002505 55 67 4.0 4.0 0.00 0.00 0.00 44 1032.1
20181021002005 56 67 3.0 4.0 0.00 0.00 0.00 43 1032.0
20181021001504 57 67 3.0 4.0 0.00 0.00 0.00 41 1032.0
20181021001006 58 67 4.0 5.0 0.00 0.00 0.00 40 1032.0
20181021000505 59 67 4.0 5.0 0.00 0.00 0.00 39 1032.0
20181021000006 60 67 3.0 3.0 0.00 0.00 0.00 37 1032.0
20181020235505 61 67 3.0 4.0 0.00 0.00 0.00 36 1032.0
20181020235005 62 67 4.0 5.0 0.00 0.00 0.00 35 1032.0
20181020234505 63 67 4.0 5.0 0.00 0.00 0.00 35 1032.0
20181020234006 64 67 4.0 5.0 0.00 0.00 0.00 33 1031.9
20181020233505 65 67 4.0 5.0 0.00 0.00 0.00 32 1031.9
20181020233006 66 67 5.0 6.0 0.00 0.00 0.00 30 1032.0
20181020232505 67 67 5.0 7.0 0.00 0.00 0.00 29 1031.8
20181020232006 67 67 5.0 7.0 0.00 0.00 0.00 29 1031.9
20181020231505 67 67 5.0 7.0 0.00 0.00 0.00 29 1031.9
20181020231005 68 67 4.0 6.0 0.00 0.00 0.00 29 1032.0
20181020230505 68 67 4.0 6.0 0.00 0.00 0.00 27 1031.9
20181020230007 68 62 4.0 5.0 0.00 0.00 0.00 26 1031.9
20181020225505 69 45 3.0 5.0 0.00 0.00 0.00 27 1032.0
20181020225005 69 45 4.0 6.0 0.00 0.00 0.00 27 1032.0
20181020224504 69 17 5.0 7.0 0.00 0.00 0.00 27 1032.0
20181020224006 69 51 8.0 10.0 0.00 0.00 0.00 26 1032.0
20181020223505 69 22 6.0 8.0 0.00 0.00 0.00 25 1032.1
20181020223006 70 29 6.0 7.0 0.00 0.00 0.00 25 1032.0
20181020222505 70 62 3.0 5.0 0.00 0.00 0.00 26 1032.2
20181020222007 70 63 5.0 7.0 0.00 0.00 0.00 26 1032.0
20181020221505 69 25 5.0 6.0 0.00 0.00 0.00 26 1032.1
20181020221006 69 31 6.0 8.0 0.00 0.00 0.00 25 1032.2
20181020220505 69 61 4.0 6.0 0.00 0.00 0.00 26 1032.2
20181020220007 69 90 4.0 5.0 0.00 0.00 0.00 25 1032.2
20181020215505 69 67 5.0 7.0 0.00 0.00 0.00 25 1032.3
20181020215005 70 93 3.0 5.0 0.00 0.00 0.00 25 1032.3
20181020214505 70 37 4.0 6.0 0.00 0.00 0.00 24 1032.4
20181020214005 70 111 3.0 5.0 0.00 0.00 0.00 24 1032.4
20181020213505 70 107 5.0 8.0 0.00 0.00 0.00 24 1032.3
20181020213007 70 229 2.0 4.0 0.00 0.00 0.00 23 1032.5
20181020212505 70 90 3.0 5.0 0.00 0.00 0.00 24 1032.4
20181020212005 70 116 1.0 2.0 0.00 0.00 0.00 24 1032.4
20181020211507 70 246 6.0 9.0 0.00 0.00 0.00 25 1032.5
20181020211006 70 138 2.0 4.0 0.00 0.00 0.00 26 1032.5
20181020210504 69 26 3.0 5.0 0.00 0.00 0.00 25 1032.5
20181020210006 69 28 2.0 4.0 0.00 0.00 0.00 26 1032.6
20181020205505 69 67 6.0 10.0 0.00 0.00 0.00 26 1032.6
20181020205007 69 67 3.0 5.0 0.00 0.00 0.00 27 1032.7
20181020204505 69 86 3.0 5.0 0.00 0.00 0.00 27 1032.7
20181020204006 69 90 4.0 7.0 0.00 0.00 0.00 27 1032.7
20181020203505 69 112 3.0 4.0 0.00 0.00 0.00 27 1032.8
20181020203006 69 253 5.0 7.0 0.00 0.00 0.00 28 1032.9
20181020202505 70 309 6.0 8.0 0.00 0.00 0.00 28 1032.9
20181020202006 70 286 5.0 6.0 0.00 0.00 0.00 28 1032.9
20181020201006 70 22 4.0 6.0 0.00 0.00 0.00 27 1033.1
20181020200504 70 67 4.0 6.0 0.00 0.00 0.00 27 1033.1
20181020200007 70 30 4.0 6.0 0.00 0.00 0.00 26 1033.2
20181020195505 70 6 3.0 6.0 0.00 0.00 0.00 27 1033.3
20181020195005 69 337 5.0 7.0 0.00 0.00 0.00 28 1033.4
20181020194505 69 19 4.0 7.0 0.00 0.00 0.00 28 1033.4
20181020194007 68 7 5.0 6.0 0.00 0.00 0.00 29 1033.5
20181020193505 68 44 4.0 9.0 0.00 0.00 0.00 29 1033.5
20181020193006 68 73 5.0 7.0 0.00 0.00 0.00 29 1033.7
20181020192504 68 28 5.0 7.0 0.00 0.00 0.00 29 1033.8
20181020192006 68 84 6.0 8.0 0.00 0.00 0.00 29 1034.0
20181020191505 68 331 4.0 6.0 0.00 0.00 0.00 29 1034.0
20181020191006 68 293 5.0 7.0 0.00 0.00 0.00 29 1034.0
20181020190505 67 337 2.0 4.0 0.00 0.00 0.00 30 1034.1
20181020190007 67 327 4.0 7.0 0.00 0.00 0.00 30 1034.3
20181020185505 67 90 3.0 5.0 0.00 0.00 0.00 29 1034.4
20181020185007 66 76 5.0 7.0 0.00 0.00 0.00 30 1034.4
20181020184505 66 68 4.0 5.0 0.00 0.00 0.00 30 1034.4
20181020184006 67 81 5.0 7.0 0.00 0.00 0.00 29 1034.4
20181020183505 67 52 5.0 8.0 0.00 0.00 0.00 28 1034.6
20181020183007 68 27 4.0 6.0 0.00 0.00 0.00 28 1034.7
20181020182505 68 330 5.0 7.0 0.00 0.00 0.00 29 1034.7
20181020182007 67 23 3.0 4.0 0.00 0.00 0.00 29 1034.8
20181020181505 67 22 3.0 5.0 0.00 0.00 0.00 29 1034.9
20181020181006 66 16 5.0 6.0 0.00 0.00 0.00 30 1035.1
20181020180505 66 34 6.0 8.0 0.00 0.00 0.00 30 1035.0
20181020180007 66 37 4.0 7.0 0.00 0.00 0.00 29 1035.1
20181020175505 66 67 4.0 6.0 0.00 0.00 0.00 28 1035.2
20181020175006 67 77 3.0 6.0 0.00 0.00 0.00 28 1035.2
20181020174505 67 54 5.0 7.0 0.00 0.00 0.00 28 1035.3
20181020174006 66 9 3.0 6.0 0.00 0.00 0.00 28 1035.3
20181020173504 67 76 0.0 2.0 0.00 0.00 0.00 28 1035.3
20181020173006 67 267 2.0 3.0 0.00 0.00 0.00 27 1035.3
20181020172504 66 22 1.0 2.0 0.00 0.00 0.00 28 1035.4
20181020172005 66 22 3.0 4.0 0.00 0.00 0.00 27 1035.4
20181020171504 67 28 3.0 5.0 0.00 0.00 0.00 28 1035.5
20181020171006 67 19 5.0 7.0 0.00 0.00 0.00 28 1035.4
20181020170505 66 21 2.0 3.0 0.00 0.00 0.00 29 1035.5
20181020170007 65 22 3.0 4.0 0.00 0.00 0.00 30 1035.6
20181020165505 64 337 3.0 6.0 0.00 0.00 0.00 32 1035.6
20181020165006 64 278 4.0 7.0 0.00 0.00 0.00 33 1035.6
20181020164505 63 320 4.0 6.0 0.00 0.00 0.00 33 1035.8
20181020164006 63 337 5.0 7.0 0.00 0.00 0.00 36 1035.8
20181020163505 62 292 5.0 8.0 0.00 0.00 0.00 37 1035.8
20181020163007 62 292 6.0 9.0 0.00 0.00 0.00 38 1035.9
20181020162505 62 321 5.0 6.0 0.00 0.00 0.00 38 1035.9
20181020162006 61 289 6.0 8.0 0.00 0.00 0.00 38 1035.8
20181020161505 61 291 6.0 8.0 0.00 0.00 0.00 39 1035.9
20181020161004 60 288 6.0 8.0 0.00 0.00 0.00 41 1035.9
20181020160504 59 292 5.0 7.0 0.00 0.00 0.00 42 1035.9
20181020160006 59 293 5.0 7.0 0.00 0.00 0.00 43 1035.9
20181020155504 58 286 5.0 8.0 0.00 0.00 0.00 43 1036.0
20181020155006 57 243 3.0 5.0 0.00 0.00 0.00 45 1035.9
20181020154505 56 248 4.0 6.0 0.00 0.00 0.00 46 1035.9
20181020154005 55 227 4.0 6.0 0.00 0.00 0.00 47 1036.1
20181020153505 54 229 4.0 6.0 0.00 0.00 0.00 48 1036.0
20181020153005 53 243 4.0 6.0 0.00 0.00 0.00 50 1036.1
20181020152504 53 245 4.0 5.0 0.00 0.00 0.00 52 1036.0
20181020152005 51 230 4.0 6.0 0.00 0.00 0.00 54 1036.0
20181020151504 51 214 3.0 6.0 0.00 0.00 0.00 55 1036.0
20181020151007 51 218 4.0 6.0 0.00 0.00 0.00 56 1036.0
20181020150505 50 253 4.0 6.0 0.00 0.00 0.00 57 1035.9
20181020150006 49 229 4.0 7.0 0.00 0.00 0.00 58 1035.8
20181020145505 49 243 4.0 6.0 0.00 0.00 0.00 59 1035.9
20181020145006 48 225 4.0 5.0 0.00 0.00 0.00 60 1035.8
20181020144505 47 214 4.0 6.0 0.00 0.00 0.00 62 1035.7
20181020144006 46 236 4.0 7.0 0.00 0.00 0.00 63 1035.6
20181020143505 46 210 2.0 4.0 0.00 0.00 0.00 65 1035.5
20181020143005 44 213 2.0 3.0 0.00 0.00 0.00 67 1035.5
20181020142504 44 191 2.0 4.0 0.00 0.00 0.00 67 1035.4
20181020142006 43 190 4.0 5.0 0.00 0.00 0.00 69 1035.4
20181020141504 42 189 3.0 4.0 0.00 0.00 0.00 71 1035.1
20181020141005 41 202 1.0 3.0 0.00 0.00 0.00 71 1035.1
20181020140504 40 180 3.0 4.0 0.00 0.00 0.00 73 1035.0
20181020140006 40 180 2.0 3.0 0.00 0.00 0.00 74 1035.0
20181020135504 39 180 0.0 1.0 0.00 0.00 0.00 74 1034.9
20181020135006 38 180 1.0 2.0 0.00 0.00 0.00 75 1034.8
20181020134506 38 202 1.0 3.0 0.00 0.00 0.00 76 1034.7
20181020134005 38 202 1.0 3.0 0.00 0.00 0.00 75 1034.7
20181020133504 37 180 3.0 5.0 0.00 0.00 0.00 77 1034.6
20181020133007 36 202 3.0 5.0 0.00 0.00 0.00 78 1034.5
20181020132504 36 202 1.0 3.0 0.00 0.00 0.00 79 1034.5
20181020132006 36 202 2.0 2.0 0.00 0.00 0.00 77 1034.4
20181020131505 36 202 1.0 2.0 0.00 0.00 0.00 78 1034.4
20181020131006 36 202 0.0 1.0 0.00 0.00 0.00 78 1034.3
20181020130505 36 202 1.0 2.0 0.00 0.00 0.00 78 1034.3
20181020130007 36 202 1.0 3.0 0.00 0.00 0.00 78 1034.3
20181020125505 36 202 1.0 3.0 0.00 0.00 0.00 78 1034.3
20181020125006 36 202 3.0 4.0 0.00 0.00 0.00 78 1034.3
20181020124006 36 202 1.0 3.0 0.00 0.00 0.00 78 1034.3
20181020123505 36 202 1.0 3.0 0.00 0.00 0.00 77 1034.3
20181020123006 36 202 2.0 3.0 0.00 0.00 0.00 77 1034.4
20181020122505 36 202 1.0 4.0 0.00 0.00 0.00 76 1034.3
20181020122006 36 194 1.0 3.0 0.00 0.00 0.00 77 1034.2
20181020121505 36 180 2.0 4.0 0.00 0.00 0.00 77 1034.2
20181020120505 36 193 4.0 6.0 0.00 0.00 0.00 78 1034.1
20181020120006 36 200 2.0 4.0 0.00 0.00 0.00 77 1034.2
20181020115504 36 202 3.0 4.0 0.00 0.00 0.00 77 1034.1
20181020115006 36 180 2.0 3.0 0.00 0.00 0.00 77 1034.2
20181020114505 36 190 2.0 4.0 0.00 0.00 0.00 77 1034.1
20181020114005 36 202 1.0 3.0 0.00 0.00 0.00 77 1034.1
20181020113504 37 202 1.0 2.0 0.00 0.00 0.00 77 1034.1
20181020113006 37 198 1.0 3.0 0.00 0.00 0.00 77 1034.0
20181020112506 37 204 2.0 4.0 0.00 0.00 0.00 77 1033.9
20181020112005 37 202 2.0 3.0 0.00 0.00 0.00 77 1033.9
20181020111505 37 202 2.0 3.0 0.00 0.00 0.00 78 1033.9
20181020111005 36 188 2.0 4.0 0.00 0.00 0.00 79 1033.8
20181020110505 36 190 2.0 3.0 0.00 0.00 0.00 78 1033.8
20181020110006 36 202 1.0 3.0 0.00 0.00 0.00 79 1033.8
20181020105505 36 202 2.0 4.0 0.00 0.00 0.00 79 1033.8
20181020105006 36 180 3.0 4.0 0.00 0.00 0.00 79 1033.9
20181020104504 36 202 1.0 4.0 0.00 0.00 0.00 79 1033.9
20181020104006 36 202 1.0 2.0 0.00 0.00 0.00 79 1033.7
20181020103505 36 202 1.0 2.0 0.00 0.00 0.00 79 1033.8
20181020103005 36 180 2.0 4.0 0.00 0.00 0.00 79 1033.7
20181020102505 36 180 2.0 3.0 0.00 0.00 0.00 80 1033.7
20181020102006 36 202 3.0 5.0 0.00 0.00 0.00 80 1033.6
20181020101505 35 202 1.0 3.0 0.00 0.00 0.00 81 1033.6
20181020101005 35 202 2.0 3.0 0.00 0.00 0.00 82 1033.7
20181020100504 35 202 3.0 4.0 0.00 0.00 0.00 82 1033.7
20181020100007 34 180 2.0 4.0 0.00 0.00 0.00 83 1033.7
20181020095505 34 180 2.0 3.0 0.00 0.00 0.00 82 1033.6
20181020095006 34 180 3.0 4.0 0.00 0.00 0.00 83 1033.6
20181020094504 34 195 2.0 3.0 0.00 0.00 0.00 83 1033.8
20181020094006 34 202 3.0 4.0 0.00 0.00 0.00 83 1033.8
20181020093505 34 202 2.0 3.0 0.00 0.00 0.00 83 1033.8
20181020093007 34 202 2.0 3.0 0.00 0.00 0.00 83 1033.7
20181020092506 34 202 2.0 3.0 0.00 0.00 0.00 83 1033.8
20181020092006 34 202 2.0 3.0 0.00 0.00 0.00 84 1033.9
20181020091006 34 202 2.0 3.0 0.00 0.00 0.00 83 1033.9
20181020090505 34 202 1.0 2.0 0.00 0.00 0.00 83 1034.0
20181020090006 34 202 2.0 3.0 0.00 0.00 0.00 83 1033.9